createdAt,value
2023-03-06T00:00:04.985Z,0
2023-03-06T00:01:05.175Z,0
2023-03-06T00:02:05.351Z,0
2023-03-06T00:03:05.531Z,0
2023-03-06T00:04:05.979Z,0
2023-03-06T00:05:06.138Z,0
2023-03-06T00:06:06.491Z,0
2023-03-06T00:07:06.686Z,0
2023-03-06T00:08:06.857Z,0
2023-03-06T00:09:07.011Z,0
2023-03-06T00:10:07.160Z,0
2023-03-06T00:11:07.323Z,0
2023-03-06T00:12:07.478Z,0
2023-03-06T00:13:07.648Z,0
2023-03-06T00:14:07.801Z,0
2023-03-06T00:15:07.969Z,0
2023-03-06T00:16:08.215Z,0
2023-03-06T00:17:08.380Z,0
2023-03-06T00:18:08.562Z,0
2023-03-06T00:19:08.729Z,0
2023-03-06T00:20:08.925Z,0
2023-03-06T00:21:09.088Z,0
2023-03-06T00:22:09.248Z,0
2023-03-06T00:23:09.431Z,0
2023-03-06T00:24:09.600Z,0
2023-03-06T00:25:09.752Z,0
2023-03-06T00:26:09.913Z,0
2023-03-06T00:27:10.064Z,0
2023-03-06T00:28:10.608Z,0
2023-03-06T00:29:10.923Z,0
2023-03-06T00:30:11.078Z,0
2023-03-06T00:31:11.355Z,0
2023-03-06T00:32:11.667Z,0
2023-03-06T00:33:11.848Z,0
2023-03-06T00:34:11.999Z,0
2023-03-06T00:35:12.164Z,0
2023-03-06T00:36:12.326Z,0
2023-03-06T00:37:12.471Z,0
2023-03-06T00:38:12.686Z,0
2023-03-06T00:39:12.894Z,0
2023-03-06T00:40:13.086Z,0
2023-03-06T00:41:13.281Z,0
2023-03-06T00:42:13.480Z,0
2023-03-06T00:43:13.641Z,0
2023-03-06T00:44:13.800Z,0
2023-03-06T00:45:13.964Z,0
2023-03-06T00:46:14.144Z,0
2023-03-06T00:47:14.297Z,0
2023-03-06T00:48:14.457Z,0
2023-03-06T00:49:14.639Z,0
2023-03-06T00:50:14.862Z,0
2023-03-06T00:51:15.015Z,0
2023-03-06T00:52:15.183Z,0
2023-03-06T00:53:15.337Z,0
2023-03-06T00:54:15.500Z,0
2023-03-06T00:55:15.676Z,0
2023-03-06T00:56:15.951Z,0
2023-03-06T00:57:16.421Z,0
2023-03-06T00:58:16.572Z,0
2023-03-06T00:59:16.718Z,0
2023-03-06T01:00:16.872Z,0
2023-03-06T01:01:17.271Z,0
2023-03-06T01:02:17.717Z,0
2023-03-06T01:03:17.919Z,0
2023-03-06T01:04:18.090Z,0
2023-03-06T01:05:18.262Z,0
2023-03-06T01:06:18.410Z,0
2023-03-06T01:07:18.572Z,0
2023-03-06T01:08:18.733Z,0
2023-03-06T01:09:18.885Z,0
2023-03-06T01:10:19.025Z,0
2023-03-06T01:11:19.497Z,0
2023-03-06T01:12:23.697Z,0
2023-03-06T01:13:23.868Z,0
2023-03-06T01:14:24.013Z,0
2023-03-06T01:15:24.160Z,0
2023-03-06T01:16:24.446Z,0
2023-03-06T01:17:24.632Z,0
2023-03-06T01:18:24.780Z,0
2023-03-06T01:19:24.925Z,0
2023-03-06T01:20:25.078Z,0
2023-03-06T01:21:25.260Z,0
2023-03-06T01:22:25.437Z,0
2023-03-06T01:23:25.593Z,0
2023-03-06T01:24:25.968Z,0.12
2023-03-06T01:25:26.169Z,0
2023-03-06T01:26:26.319Z,0
2023-03-06T01:27:26.482Z,0
2023-03-06T01:28:26.634Z,0
2023-03-06T01:29:26.798Z,0
2023-03-06T01:30:27.098Z,0
2023-03-06T01:31:27.445Z,0
2023-03-06T01:32:27.789Z,0
2023-03-06T01:33:27.982Z,0
2023-03-06T01:34:28.134Z,0
2023-03-06T01:35:28.436Z,0
2023-03-06T01:36:28.614Z,0
2023-03-06T01:37:28.765Z,0
2023-03-06T01:38:28.915Z,0
2023-03-06T01:39:29.080Z,0
2023-03-06T01:40:29.251Z,0
2023-03-06T01:41:29.409Z,0
2023-03-06T01:42:32.318Z,0
2023-03-06T01:43:32.466Z,0
2023-03-06T01:44:32.621Z,0
2023-03-06T01:45:32.870Z,0
2023-03-06T01:46:33.031Z,0
2023-03-06T01:47:33.202Z,0
2023-03-06T01:48:33.361Z,0
2023-03-06T01:49:33.522Z,0
2023-03-06T01:50:33.669Z,0
2023-03-06T01:51:33.836Z,0
2023-03-06T01:52:33.992Z,0
2023-03-06T01:53:34.156Z,0
2023-03-06T01:54:34.360Z,0
2023-03-06T01:55:34.529Z,0
2023-03-06T01:56:34.705Z,0
2023-03-06T01:57:34.863Z,0
2023-03-06T01:58:35.034Z,0
2023-03-06T01:59:35.192Z,0
2023-03-06T02:00:35.332Z,0
2023-03-06T02:01:35.485Z,0
2023-03-06T02:02:35.918Z,0
2023-03-06T02:03:36.099Z,0
2023-03-06T02:04:36.263Z,0
2023-03-06T02:05:36.417Z,0
2023-03-06T02:06:36.598Z,0
2023-03-06T02:07:36.753Z,0
2023-03-06T02:08:36.910Z,0
2023-03-06T02:09:37.072Z,0
2023-03-06T02:10:37.240Z,0
2023-03-06T02:11:37.667Z,0
2023-03-06T02:12:37.917Z,0
2023-03-06T02:13:38.088Z,0
2023-03-06T02:14:38.264Z,0
2023-03-06T02:15:38.418Z,0
2023-03-06T02:16:38.665Z,0
2023-03-06T02:17:38.848Z,0
2023-03-06T02:18:39.004Z,0
2023-03-06T02:19:39.167Z,0
2023-03-06T02:20:39.318Z,0
2023-03-06T02:21:39.464Z,0
2023-03-06T02:22:39.618Z,0
2023-03-06T02:23:39.762Z,0
2023-03-06T02:24:39.922Z,0
2023-03-06T02:25:40.105Z,0
2023-03-06T02:26:40.264Z,0
2023-03-06T02:27:40.410Z,0
2023-03-06T02:28:40.578Z,0
2023-03-06T02:29:40.737Z,0
2023-03-06T02:30:41.107Z,0
2023-03-06T02:31:41.284Z,0
2023-03-06T02:32:41.436Z,0
2023-03-06T02:33:41.591Z,0
2023-03-06T02:34:41.739Z,0
2023-03-06T02:35:42.006Z,0
2023-03-06T02:36:42.227Z,0
2023-03-06T02:37:42.377Z,0
2023-03-06T02:38:42.525Z,0
2023-03-06T02:39:42.671Z,0
2023-03-06T02:40:42.829Z,0
2023-03-06T02:41:42.998Z,0
2023-03-06T02:42:43.151Z,0
2023-03-06T02:43:43.297Z,0
2023-03-06T02:44:43.461Z,0
2023-03-06T02:45:43.695Z,0
2023-03-06T02:46:43.862Z,0
2023-03-06T02:47:44.014Z,0
2023-03-06T02:48:44.178Z,0
2023-03-06T02:49:44.368Z,0
2023-03-06T02:50:44.556Z,0
2023-03-06T02:51:44.728Z,0
2023-03-06T02:52:44.881Z,0
2023-03-06T02:53:45.069Z,0
2023-03-06T02:54:45.247Z,0
2023-03-06T02:55:45.408Z,0
2023-03-06T02:56:45.566Z,0
2023-03-06T02:57:45.719Z,0
2023-03-06T02:58:45.875Z,0
2023-03-06T02:59:46.024Z,0
2023-03-06T03:00:46.180Z,0
2023-03-06T03:01:46.453Z,0
2023-03-06T03:02:46.629Z,0
2023-03-06T03:03:46.785Z,0
2023-03-06T03:04:47.039Z,0
2023-03-06T03:05:47.229Z,0
2023-03-06T03:06:47.374Z,0
2023-03-06T03:07:47.529Z,0
2023-03-06T03:08:47.681Z,0
2023-03-06T03:09:47.843Z,0
2023-03-06T03:10:48.006Z,0
2023-03-06T03:11:48.166Z,0
2023-03-06T03:12:48.317Z,0
2023-03-06T03:13:48.503Z,0
2023-03-06T03:14:48.651Z,0
2023-03-06T03:15:48.984Z,0
2023-03-06T03:16:49.164Z,0
2023-03-06T03:17:49.321Z,0
2023-03-06T03:18:49.478Z,0
2023-03-06T03:19:49.627Z,0
2023-03-06T03:20:49.785Z,0
2023-03-06T03:21:49.937Z,0
2023-03-06T03:22:50.114Z,0
2023-03-06T03:23:50.281Z,0
2023-03-06T03:24:50.725Z,0.22
2023-03-06T03:25:50.958Z,0.1
2023-03-06T03:26:51.095Z,0.97
2023-03-06T03:27:51.240Z,0.2
2023-03-06T03:28:51.395Z,0.14
2023-03-06T03:29:51.529Z,0
2023-03-06T03:30:51.853Z,0.11
2023-03-06T03:31:52.052Z,0.25
2023-03-06T03:32:52.197Z,0
2023-03-06T03:33:52.353Z,0.41
2023-03-06T03:34:52.497Z,0.12
2023-03-06T03:35:52.812Z,0
2023-03-06T03:36:53.004Z,0
2023-03-06T03:37:53.153Z,0
2023-03-06T03:38:53.298Z,0
2023-03-06T03:39:53.448Z,0
2023-03-06T03:40:53.624Z,0
2023-03-06T03:41:53.791Z,0
2023-03-06T03:42:53.949Z,0
2023-03-06T03:43:54.113Z,0
2023-03-06T03:44:54.303Z,0
2023-03-06T03:45:54.500Z,0
2023-03-06T03:46:54.649Z,0.16
2023-03-06T03:47:54.800Z,0.56
2023-03-06T03:48:54.964Z,0
2023-03-06T03:49:55.134Z,0
2023-03-06T03:50:55.290Z,0.36
2023-03-06T03:51:55.440Z,0.54
2023-03-06T03:52:55.596Z,0.62
2023-03-06T03:53:55.750Z,0
2023-03-06T03:54:55.897Z,0.14
2023-03-06T03:55:56.043Z,0
2023-03-06T03:56:56.206Z,0
2023-03-06T03:57:56.368Z,0.12
2023-03-06T03:58:56.527Z,0
2023-03-06T03:59:56.707Z,0
2023-03-06T04:00:56.861Z,0
2023-03-06T04:01:57.178Z,0
2023-03-06T04:02:57.362Z,0
2023-03-06T04:03:57.534Z,0
2023-03-06T04:04:57.889Z,0
2023-03-06T04:05:58.298Z,0
2023-03-06T04:06:58.460Z,0
2023-03-06T04:07:58.643Z,0.45
2023-03-06T04:08:58.808Z,0
2023-03-06T04:09:58.990Z,0
2023-03-06T04:10:59.150Z,0
2023-03-06T04:11:59.307Z,0
2023-03-06T04:12:59.520Z,0
2023-03-06T04:13:59.687Z,0
2023-03-06T04:14:59.850Z,0
2023-03-06T04:16:00.171Z,0
2023-03-06T04:17:00.356Z,0
2023-03-06T04:18:00.518Z,0
2023-03-06T04:19:00.694Z,0
2023-03-06T04:20:00.862Z,0
2023-03-06T04:21:01.014Z,0
2023-03-06T04:22:01.171Z,0
2023-03-06T04:23:01.326Z,0
2023-03-06T04:24:01.490Z,0
2023-03-06T04:25:01.670Z,0
2023-03-06T04:26:01.823Z,0
2023-03-06T04:27:01.987Z,0
2023-03-06T04:28:02.137Z,0
2023-03-06T04:29:02.287Z,0
2023-03-06T04:30:02.436Z,0
2023-03-06T04:31:03.083Z,0
2023-03-06T04:32:03.627Z,0
2023-03-06T04:33:03.834Z,0
2023-03-06T04:34:04.016Z,0
2023-03-06T04:35:04.175Z,0
2023-03-06T04:36:04.326Z,0
2023-03-06T04:37:04.488Z,0
2023-03-06T04:38:04.643Z,0
2023-03-06T04:39:05.045Z,0
2023-03-06T04:40:05.628Z,0
2023-03-06T04:41:06.115Z,0
2023-03-06T04:42:06.546Z,0
2023-03-06T04:43:06.701Z,0
2023-03-06T04:44:06.864Z,0
2023-03-06T04:45:07.001Z,0
2023-03-06T04:46:07.424Z,0
2023-03-06T04:47:08.102Z,0
2023-03-06T04:48:08.429Z,0
2023-03-06T04:49:08.589Z,0
2023-03-06T04:50:08.760Z,0
2023-03-06T04:51:08.928Z,0
2023-03-06T04:52:09.092Z,0
2023-03-06T04:53:09.259Z,0
2023-03-06T04:54:09.414Z,0
2023-03-06T04:55:09.574Z,0
2023-03-06T04:56:09.761Z,0
2023-03-06T04:57:09.930Z,0
2023-03-06T04:58:10.090Z,0
2023-03-06T04:59:10.239Z,0
2023-03-06T05:00:10.401Z,0
2023-03-06T05:01:10.931Z,0
2023-03-06T05:02:11.306Z,0
2023-03-06T05:03:11.556Z,0
2023-03-06T05:04:11.715Z,0
2023-03-06T05:05:11.882Z,0
2023-03-06T05:06:12.055Z,0
2023-03-06T05:07:12.290Z,0
2023-03-06T05:08:12.441Z,0
2023-03-06T05:09:12.610Z,0
2023-03-06T05:10:12.784Z,0
2023-03-06T05:11:12.967Z,0
2023-03-06T05:12:13.124Z,0
2023-03-06T05:13:13.291Z,0
2023-03-06T05:14:13.698Z,0
2023-03-06T05:15:14.013Z,0
2023-03-06T05:16:14.341Z,0
2023-03-06T05:17:14.532Z,0
2023-03-06T05:18:14.670Z,0
2023-03-06T05:19:14.817Z,0
2023-03-06T05:20:14.978Z,0
2023-03-06T05:21:15.127Z,0
2023-03-06T05:22:15.274Z,0
2023-03-06T05:23:15.444Z,0
2023-03-06T05:24:15.591Z,0
2023-03-06T05:25:15.743Z,0
2023-03-06T05:26:15.915Z,0
2023-03-06T05:27:17.127Z,0
2023-03-06T05:28:17.273Z,0
2023-03-06T05:29:17.428Z,0
2023-03-06T05:30:17.585Z,0
2023-03-06T05:31:17.899Z,0
2023-03-06T05:32:18.176Z,0
2023-03-06T05:33:18.345Z,0
2023-03-06T05:34:18.508Z,0
2023-03-06T05:35:18.905Z,0
2023-03-06T05:36:19.078Z,0
2023-03-06T05:37:19.638Z,0
2023-03-06T05:38:20.014Z,0
2023-03-06T05:39:20.190Z,0
2023-03-06T05:40:20.341Z,0
2023-03-06T05:41:20.496Z,0
2023-03-06T05:42:20.659Z,0
2023-03-06T05:43:20.821Z,0
2023-03-06T05:44:21.013Z,0
2023-03-06T05:45:21.181Z,0
2023-03-06T05:46:21.483Z,0
2023-03-06T05:47:21.649Z,0
2023-03-06T05:48:21.796Z,0
2023-03-06T05:49:21.954Z,0
2023-03-06T05:50:22.124Z,0
2023-03-06T05:51:22.292Z,0.25
2023-03-06T05:52:22.446Z,0
2023-03-06T05:53:22.591Z,0
2023-03-06T05:54:22.804Z,0
2023-03-06T05:55:23.121Z,0.21
2023-03-06T05:56:23.273Z,0
2023-03-06T05:57:23.451Z,0
2023-03-06T05:58:23.612Z,0.29
2023-03-06T05:59:23.761Z,0.25
2023-03-06T06:00:23.925Z,0
2023-03-06T06:01:24.093Z,0.29
2023-03-06T06:02:24.377Z,0.28
2023-03-06T06:03:24.666Z,0.77
2023-03-06T06:04:24.862Z,0
2023-03-06T06:05:25.017Z,1.41
2023-03-06T06:06:25.173Z,0.72
2023-03-06T06:07:25.348Z,0.45
2023-03-06T06:08:25.506Z,0.37
2023-03-06T06:09:25.664Z,0
2023-03-06T06:10:25.831Z,0.75
2023-03-06T06:11:26.000Z,0.62
2023-03-06T06:12:26.168Z,0
2023-03-06T06:13:26.333Z,0
2023-03-06T06:14:26.490Z,0
2023-03-06T06:15:26.648Z,0
2023-03-06T06:16:26.808Z,0
2023-03-06T06:17:26.962Z,0
2023-03-06T06:18:27.123Z,0
2023-03-06T06:19:27.278Z,0
2023-03-06T06:20:27.462Z,0
2023-03-06T06:21:27.676Z,0
2023-03-06T06:22:27.841Z,0
2023-03-06T06:23:27.990Z,0
2023-03-06T06:24:28.149Z,0
2023-03-06T06:25:28.303Z,0
2023-03-06T06:26:28.450Z,0
2023-03-06T06:27:28.613Z,0
2023-03-06T06:28:28.767Z,0
2023-03-06T06:29:28.943Z,0
2023-03-06T06:30:29.105Z,0
2023-03-06T06:31:29.541Z,0
2023-03-06T06:32:29.833Z,0
2023-03-06T06:33:30.013Z,0
2023-03-06T06:34:30.168Z,0
2023-03-06T06:35:30.423Z,0
2023-03-06T06:36:30.616Z,0
2023-03-06T06:37:30.796Z,0
2023-03-06T06:38:30.965Z,0
2023-03-06T06:39:31.163Z,0
2023-03-06T06:40:31.326Z,0
2023-03-06T06:42:31.402Z,0
2023-03-06T06:43:33.344Z,0
2023-03-06T06:44:33.505Z,0
2023-03-06T06:45:33.664Z,0
2023-03-06T06:47:25.505Z,0
2023-03-06T06:48:25.813Z,0
2023-03-06T06:49:25.998Z,0
2023-03-06T06:50:26.159Z,0
2023-03-06T06:51:26.323Z,0
2023-03-06T06:52:26.518Z,0
2023-03-06T06:53:28.343Z,0
2023-03-06T06:54:28.546Z,0
2023-03-06T06:55:28.703Z,0
2023-03-06T06:56:28.879Z,0
2023-03-06T06:57:29.024Z,0
2023-03-06T06:58:29.175Z,0
2023-03-06T06:59:29.327Z,0
2023-03-06T07:00:29.593Z,0
2023-03-06T07:01:29.960Z,0
2023-03-06T07:02:30.140Z,0
2023-03-06T07:03:30.293Z,0
2023-03-06T07:04:30.450Z,0
2023-03-06T07:05:30.605Z,0
2023-03-06T07:06:30.763Z,0
2023-03-06T07:07:30.935Z,0
2023-03-06T07:08:31.088Z,0
2023-03-06T07:09:31.285Z,0
2023-03-06T07:10:31.452Z,0
2023-03-06T07:11:31.714Z,0
2023-03-06T07:12:31.914Z,0
2023-03-06T07:13:32.098Z,0
2023-03-06T07:14:32.290Z,0
2023-03-06T07:15:32.442Z,0
2023-03-06T07:16:32.623Z,0
2023-03-06T07:17:32.831Z,0
2023-03-06T07:18:33.027Z,0
2023-03-06T07:19:33.221Z,0
2023-03-06T07:20:33.370Z,0
2023-03-06T07:21:33.538Z,0
2023-03-06T07:22:52.045Z,0
2023-03-06T07:23:52.259Z,0
2023-03-06T07:24:52.412Z,0
2023-03-06T07:25:52.584Z,0
2023-03-06T07:26:52.754Z,0
2023-03-06T07:27:54.846Z,0
2023-03-06T07:28:55.281Z,0
2023-03-06T07:29:55.465Z,0
2023-03-06T07:30:55.750Z,0
2023-03-06T07:31:55.974Z,0
2023-03-06T07:32:56.150Z,0
2023-03-06T07:33:56.313Z,0
2023-03-06T07:35:29.488Z,0
2023-03-06T07:36:29.641Z,0
2023-03-06T07:37:29.792Z,0
2023-03-06T07:38:29.942Z,0
2023-03-06T07:39:30.194Z,0
2023-03-06T07:40:30.345Z,0
2023-03-06T07:41:30.515Z,0
2023-03-06T07:42:30.684Z,0
2023-03-06T07:43:30.843Z,0
2023-03-06T07:44:30.997Z,0
2023-03-06T07:45:31.151Z,0
2023-03-06T07:46:31.694Z,0
2023-03-06T07:47:31.854Z,0
2023-03-06T07:48:32.011Z,0
2023-03-06T07:49:32.168Z,0
2023-03-06T07:50:32.326Z,0
2023-03-06T07:51:32.517Z,0
2023-03-06T07:52:32.755Z,0
2023-03-06T07:53:32.909Z,0
2023-03-06T07:54:33.073Z,0
2023-03-06T07:55:33.232Z,0.64
2023-03-06T07:56:33.385Z,0.41
2023-03-06T07:57:33.552Z,0
2023-03-06T07:58:33.707Z,0
2023-03-06T07:59:33.888Z,0
2023-03-06T08:00:34.050Z,0
2023-03-06T08:01:34.218Z,0
2023-03-06T08:02:34.549Z,0
2023-03-06T08:03:34.925Z,0
2023-03-06T08:04:35.123Z,0
2023-03-06T08:05:35.268Z,0
2023-03-06T08:06:35.428Z,0
2023-03-06T08:07:35.596Z,0
2023-03-06T08:08:35.779Z,0
2023-03-06T08:09:35.955Z,0.12
2023-03-06T08:10:36.148Z,0
2023-03-06T08:11:36.342Z,0
2023-03-06T08:12:36.497Z,0
2023-03-06T08:13:36.674Z,0
2023-03-06T08:14:36.839Z,0.18
2023-03-06T08:15:37.011Z,0
2023-03-06T08:16:37.332Z,0
2023-03-06T08:17:37.495Z,0
2023-03-06T08:18:37.643Z,0.58
2023-03-06T08:19:37.823Z,0.16
2023-03-06T08:20:37.979Z,0
2023-03-06T08:21:38.143Z,0.5
2023-03-06T08:22:38.312Z,0.79
2023-03-06T08:23:38.618Z,0.7
2023-03-06T08:24:38.881Z,0.29
2023-03-06T08:25:39.042Z,0.29
2023-03-06T08:26:39.216Z,0.33
2023-03-06T08:27:39.388Z,0
2023-03-06T08:28:39.550Z,1.62
2023-03-06T08:29:39.702Z,0.19
2023-03-06T08:30:39.863Z,0.15
2023-03-06T08:31:40.347Z,0.16
2023-03-06T08:32:40.960Z,1.29
2023-03-06T08:33:41.159Z,0.69
2023-03-06T08:34:41.312Z,0.5
2023-03-06T08:35:41.702Z,0
2023-03-06T08:36:41.863Z,0
2023-03-06T08:37:42.237Z,0
2023-03-06T08:38:42.430Z,0
2023-03-06T08:39:42.574Z,0.5
2023-03-06T08:40:42.742Z,0.3
2023-03-06T08:41:42.895Z,0.26
2023-03-06T08:42:43.045Z,0.16
2023-03-06T08:43:43.231Z,1.29
2023-03-06T08:44:43.381Z,0.37
2023-03-06T08:45:43.697Z,0.18
2023-03-06T08:46:43.877Z,0
2023-03-06T08:47:44.029Z,0.14
2023-03-06T08:48:44.184Z,0
2023-03-06T08:49:44.341Z,0
2023-03-06T08:50:44.502Z,0
2023-03-06T08:51:44.686Z,0
2023-03-06T08:52:44.844Z,0.57
2023-03-06T08:53:45.013Z,0
2023-03-06T08:54:45.170Z,1.04
2023-03-06T08:55:45.353Z,0.27
2023-03-06T08:56:45.503Z,0
2023-03-06T08:57:45.655Z,0
2023-03-06T08:58:45.821Z,0
2023-03-06T08:59:45.977Z,0
2023-03-06T09:00:46.551Z,0.41
2023-03-06T09:01:46.832Z,0
2023-03-06T09:02:46.976Z,0.28
2023-03-06T09:03:47.175Z,1.02
2023-03-06T09:04:47.350Z,0.17
2023-03-06T09:05:47.524Z,0.11
2023-03-06T09:06:47.684Z,0.56
2023-03-06T09:07:47.837Z,0
2023-03-06T09:08:48.003Z,0.83
2023-03-06T09:09:48.173Z,0.14
2023-03-06T09:10:48.496Z,0
2023-03-06T09:11:48.685Z,0
2023-03-06T09:12:55.342Z,0.16
2023-03-06T09:13:55.641Z,0
2023-03-06T09:14:55.776Z,0.56
2023-03-06T09:15:55.928Z,0
2023-03-06T09:16:56.293Z,0.87
2023-03-06T09:17:56.615Z,0.16
2023-03-06T09:18:56.821Z,0.2
2023-03-06T09:19:57.000Z,0.31
2023-03-06T09:20:57.154Z,0
2023-03-06T09:21:57.319Z,0
2023-03-06T09:22:57.489Z,0
2023-03-06T09:23:57.666Z,0
2023-03-06T09:24:57.855Z,0
2023-03-06T09:25:58.012Z,0
2023-03-06T09:26:58.160Z,0.53
2023-03-06T09:28:12.485Z,0.45
2023-03-06T09:29:12.862Z,0
2023-03-06T09:30:13.042Z,0.79
2023-03-06T09:31:13.471Z,0
2023-03-06T09:32:13.868Z,1.3
2023-03-06T09:33:14.042Z,0.2
2023-03-06T09:34:14.222Z,0
2023-03-06T09:35:14.394Z,0.58
2023-03-06T09:36:14.551Z,0
2023-03-06T09:37:17.466Z,0.41
2023-03-06T09:38:17.664Z,0.75
2023-03-06T09:39:17.850Z,0.7
2023-03-06T09:40:18.008Z,0.15
2023-03-06T09:41:18.325Z,0
2023-03-06T09:42:18.487Z,0
2023-03-06T09:43:18.606Z,0
2023-03-06T09:44:18.751Z,0
2023-03-06T09:45:18.901Z,0
2023-03-06T09:46:19.260Z,0
2023-03-06T09:47:19.414Z,0.16
2023-03-06T09:48:19.561Z,0
2023-03-06T09:49:19.697Z,0.1
2023-03-06T09:50:19.846Z,0.41
2023-03-06T09:51:19.984Z,0
2023-03-06T09:52:20.154Z,0.39
2023-03-06T09:53:20.301Z,0
2023-03-06T09:54:20.465Z,0
2023-03-06T09:55:20.602Z,0
2023-03-06T09:56:20.753Z,0
2023-03-06T09:57:20.899Z,0
2023-03-06T09:58:21.054Z,0.18
2023-03-06T09:59:21.197Z,0
2023-03-06T10:00:21.342Z,0
2023-03-06T10:01:21.479Z,0.33
2023-03-06T10:02:21.944Z,0.62
2023-03-06T10:03:22.279Z,0
2023-03-06T10:04:22.450Z,0
2023-03-06T10:05:22.800Z,0
2023-03-06T10:06:22.946Z,0
2023-03-06T10:07:23.109Z,0
2023-03-06T10:08:23.261Z,0
2023-03-06T10:09:23.406Z,0.25
2023-03-06T10:10:23.549Z,0.12
2023-03-06T10:11:23.699Z,0.11
2023-03-06T10:12:25.161Z,0
2023-03-06T10:13:25.307Z,0
2023-03-06T10:14:25.508Z,0
2023-03-06T10:15:26.031Z,0
2023-03-06T10:16:26.217Z,0.52
2023-03-06T10:17:26.363Z,0.29
2023-03-06T10:18:26.514Z,0
2023-03-06T10:19:26.689Z,0.66
2023-03-06T10:20:26.858Z,0.19
2023-03-06T10:21:27.006Z,1.08
2023-03-06T10:22:27.146Z,1.6
2023-03-06T10:23:27.303Z,0
2023-03-06T10:24:27.447Z,0.83
2023-03-06T10:25:27.591Z,1.4
2023-03-06T10:26:28.184Z,0.72
2023-03-06T10:27:28.396Z,2
2023-03-06T10:28:28.535Z,0.16
2023-03-06T10:29:28.684Z,0
2023-03-06T10:30:28.834Z,0.36
2023-03-06T10:31:29.285Z,0.92
2023-03-06T10:32:49.625Z,0.75
2023-03-06T10:33:49.853Z,0.24
2023-03-06T10:34:49.999Z,1.83
2023-03-06T10:35:50.305Z,1.84
2023-03-06T10:36:50.470Z,0.34
2023-03-06T10:37:50.635Z,1.28
2023-03-06T10:38:50.807Z,0.54
2023-03-06T10:39:50.982Z,1.16
2023-03-06T10:40:51.153Z,1.31
2023-03-06T10:41:51.294Z,1.16
2023-03-06T10:43:12.152Z,2.91
2023-03-06T10:44:12.457Z,0.95
2023-03-06T10:45:12.635Z,0.2
2023-03-06T10:46:12.998Z,1.66
2023-03-06T10:47:13.164Z,2.54
2023-03-06T10:48:13.310Z,2.7
2023-03-06T10:49:13.442Z,2.06
2023-03-06T10:50:13.564Z,1.29
2023-03-06T10:51:19.392Z,1.33
2023-03-06T10:52:19.546Z,0.39
2023-03-06T10:53:19.692Z,0.2
2023-03-06T10:54:19.817Z,0.62
2023-03-06T10:55:19.941Z,1.37
2023-03-06T10:56:20.069Z,1.8
2023-03-06T10:57:20.222Z,1.14
2023-03-06T10:58:20.368Z,0.46
2023-03-06T10:59:20.515Z,1.04
2023-03-06T11:00:21.137Z,1.48
2023-03-06T11:01:21.457Z,2.95
2023-03-06T11:02:21.593Z,0.75
2023-03-06T11:03:21.765Z,0.82
2023-03-06T11:04:22.116Z,0
2023-03-06T11:05:22.288Z,0
2023-03-06T11:06:22.433Z,0
2023-03-06T11:07:22.968Z,0
2023-03-06T11:08:23.118Z,0
2023-03-06T11:09:23.280Z,0
2023-03-06T11:10:23.457Z,0
2023-03-06T11:11:38.268Z,0
2023-03-06T11:12:38.416Z,0
2023-03-06T11:13:38.565Z,0
2023-03-06T11:14:38.715Z,0
2023-03-06T11:15:38.981Z,0
2023-03-06T11:16:39.145Z,0
2023-03-06T11:17:39.293Z,0
2023-03-06T11:18:39.453Z,0
2023-03-06T11:19:39.592Z,0
2023-03-06T11:20:53.375Z,0
2023-03-06T11:21:53.535Z,0
2023-03-06T11:22:53.670Z,0.37
2023-03-06T11:23:53.817Z,0
2023-03-06T11:24:53.958Z,0
2023-03-06T11:25:54.121Z,0
2023-03-06T11:26:54.285Z,0.12
2023-03-06T11:27:54.422Z,0
2023-03-06T11:28:54.778Z,0.33
2023-03-06T11:29:54.956Z,0
2023-03-06T11:30:55.098Z,0
2023-03-06T11:31:55.326Z,0.83
2023-03-06T11:32:55.509Z,0.37
2023-03-06T11:33:55.650Z,1.12
2023-03-06T11:34:55.780Z,0.6
2023-03-06T11:35:56.047Z,0.16
2023-03-06T11:36:56.202Z,0
2023-03-06T11:37:56.325Z,0
2023-03-06T11:38:56.464Z,0
2023-03-06T11:39:56.590Z,1.91
2023-03-06T11:40:56.726Z,0.45
2023-03-06T11:41:56.850Z,0
2023-03-06T11:42:57.015Z,0.79
2023-03-06T11:43:57.153Z,0.7
2023-03-06T11:44:57.287Z,0.89
2023-03-06T11:45:57.433Z,0.39
2023-03-06T11:46:57.679Z,0.91
2023-03-06T11:47:57.871Z,0.85
2023-03-06T11:48:57.999Z,0.42
2023-03-06T11:49:58.138Z,0
2023-03-06T11:50:58.296Z,0
2023-03-06T11:51:58.428Z,0.13
2023-03-06T11:52:58.576Z,0.11
2023-03-06T11:53:58.753Z,0
2023-03-06T11:54:58.903Z,0.12
2023-03-06T11:55:59.062Z,0.16
2023-03-06T11:56:59.199Z,0
2023-03-06T11:57:59.330Z,0
2023-03-06T11:58:59.483Z,0
2023-03-06T11:59:59.628Z,0
2023-03-06T12:00:59.772Z,0
2023-03-06T12:02:00.204Z,2.41
2023-03-06T12:03:00.434Z,1.37
2023-03-06T12:04:00.571Z,1.87
2023-03-06T12:05:01.128Z,0.25
2023-03-06T12:06:01.329Z,0.37
2023-03-06T12:07:01.465Z,0.83
2023-03-06T12:08:01.602Z,0.1
2023-03-06T12:09:01.765Z,0.79
2023-03-06T12:10:01.912Z,1.16
2023-03-06T12:11:02.055Z,0.2
2023-03-06T12:12:02.192Z,0.76
2023-03-06T12:13:02.354Z,0
2023-03-06T12:14:04.482Z,0.5
2023-03-06T12:15:04.618Z,0.95
2023-03-06T12:16:04.848Z,0
2023-03-06T12:17:04.990Z,1.27
2023-03-06T12:18:05.133Z,0.16
2023-03-06T12:19:05.265Z,0
2023-03-06T12:20:05.432Z,1.26
2023-03-06T12:21:05.577Z,0.5
2023-03-06T12:22:05.731Z,0.16
2023-03-06T12:23:16.144Z,0
2023-03-06T12:24:16.282Z,0
2023-03-06T12:25:16.426Z,0
2023-03-06T12:26:16.557Z,0
2023-03-06T12:27:16.714Z,0
2023-03-06T12:28:16.849Z,0
2023-03-06T12:29:16.983Z,1
2023-03-06T12:30:17.124Z,0.45
2023-03-06T12:31:17.259Z,1.79
2023-03-06T12:32:17.897Z,0.85
2023-03-06T12:33:18.098Z,0.55
2023-03-06T12:34:18.242Z,0.58
2023-03-06T12:35:18.537Z,0.29
2023-03-06T12:36:18.706Z,1.37
2023-03-06T12:37:18.869Z,1.18
2023-03-06T12:38:19.033Z,1.62
2023-03-06T12:39:19.199Z,0.17
2023-03-06T12:40:19.559Z,0.18
2023-03-06T12:41:19.797Z,0.13
2023-03-06T12:42:23.971Z,0.75
2023-03-06T12:43:24.101Z,0
2023-03-06T12:44:24.233Z,0.16
2023-03-06T12:45:24.378Z,0.41
2023-03-06T12:46:24.801Z,0.5
2023-03-06T12:47:24.985Z,1.37
2023-03-06T12:48:25.120Z,1.66
2023-03-06T12:49:33.553Z,0.71
2023-03-06T12:50:33.699Z,1.66
2023-03-06T12:51:33.861Z,0.83
2023-03-06T12:52:34.003Z,1.41
2023-03-06T12:53:34.162Z,1.18
2023-03-06T12:54:34.306Z,1.3
2023-03-06T12:55:34.439Z,1.62
2023-03-06T12:56:34.600Z,0.47
2023-03-06T12:57:34.736Z,0.81
2023-03-06T12:58:34.881Z,0.73
2023-03-06T12:59:35.024Z,0.91
2023-03-06T13:00:35.182Z,1.85
2023-03-06T13:01:35.479Z,0
2023-03-06T13:02:35.800Z,0
2023-03-06T13:03:35.949Z,0.1
2023-03-06T13:04:36.093Z,2.04
2023-03-06T13:05:36.236Z,1.58
2023-03-06T13:06:51.188Z,1.13
2023-03-06T13:07:51.517Z,0.75
2023-03-06T13:08:51.651Z,0.27
2023-03-06T13:09:51.793Z,1.33
2023-03-06T13:10:51.926Z,0.95
2023-03-06T13:11:52.092Z,1.29
2023-03-06T13:12:52.248Z,1.58
2023-03-06T13:13:52.408Z,1.56
2023-03-06T13:14:55.416Z,3.08
2023-03-06T13:15:55.559Z,1.34
2023-03-06T13:16:55.748Z,1.89
2023-03-06T13:17:55.902Z,2.12
2023-03-06T13:18:56.047Z,1.91
2023-03-06T13:19:56.182Z,1.95
2023-03-06T13:20:56.325Z,1.23
2023-03-06T13:21:56.468Z,1.25
2023-03-06T13:22:56.610Z,2.2
2023-03-06T13:23:56.739Z,1.66
2023-03-06T13:25:08.617Z,0.51
2023-03-06T13:26:08.793Z,0.78
2023-03-06T13:27:08.944Z,1.02
2023-03-06T13:28:09.085Z,1.12
2023-03-06T13:29:09.229Z,1.58
2023-03-06T13:30:09.364Z,1.96
2023-03-06T13:31:28.233Z,2.14
2023-03-06T13:32:28.691Z,0.21
2023-03-06T13:33:28.847Z,1.19
2023-03-06T13:34:28.981Z,0.79
2023-03-06T13:35:29.400Z,0.3
2023-03-06T13:36:29.715Z,0
2023-03-06T13:37:29.876Z,1.41
2023-03-06T13:38:30.023Z,1.26
2023-03-06T13:39:30.157Z,1.79
2023-03-06T13:40:30.315Z,1
2023-03-06T13:41:30.440Z,0.87
2023-03-06T13:42:30.622Z,1.41
2023-03-06T13:43:33.027Z,1.13
2023-03-06T13:44:33.248Z,1.12
2023-03-06T13:45:33.436Z,0.83
2023-03-06T13:46:33.746Z,0
2023-03-06T13:48:41.476Z,0
2023-03-06T13:49:43.106Z,1.35
2023-03-06T13:50:43.270Z,0.52
2023-03-06T13:51:43.413Z,1.66
2023-03-06T13:52:43.547Z,0.82
2023-03-06T13:53:43.860Z,0.45
2023-03-06T13:54:44.004Z,1
2023-03-06T13:55:44.174Z,1.08
2023-03-06T13:56:44.309Z,0.15
2023-03-06T13:57:44.472Z,1.41
2023-03-06T13:58:44.635Z,3.04
2023-03-06T13:59:44.773Z,2.31
2023-03-06T14:00:44.958Z,0.95
2023-03-06T14:01:45.307Z,0.8
2023-03-06T14:02:45.627Z,1.1
2023-03-06T14:03:45.819Z,1.41
2023-03-06T14:04:45.977Z,0.54
2023-03-06T14:05:46.128Z,0.41
2023-03-06T14:06:46.268Z,0.34
2023-03-06T14:07:46.405Z,0.35
2023-03-06T14:08:46.547Z,1.52
2023-03-06T14:09:46.715Z,1.7
2023-03-06T14:10:46.861Z,1.41
2023-03-06T14:11:46.987Z,1.87
2023-03-06T14:12:47.119Z,2.25
2023-03-06T14:13:48.051Z,0.86
2023-03-06T14:14:48.193Z,1.84
2023-03-06T14:15:48.627Z,1.43
2023-03-06T14:16:51.124Z,1.03
2023-03-06T14:17:51.303Z,1.32
2023-03-06T14:18:51.460Z,0.96
2023-03-06T14:19:51.632Z,0.72
2023-03-06T14:20:51.784Z,0.77
2023-03-06T14:21:51.919Z,0.7
2023-03-06T14:22:52.054Z,0
2023-03-06T14:23:52.192Z,0
2023-03-06T14:24:52.351Z,0.23
2023-03-06T14:25:52.482Z,0.48
2023-03-06T14:26:52.618Z,0